Time,TemperatureF,DewpointF,PressureIn,WindDirection,WindDirectionDegrees,WindSpeedMPH,WindSpeedGustMPH,Humidity,HourlyPrecipIn,Conditions,Clouds,dailyrainin,SoftwareType,DateUTC
2013-08-12 00:14:00,42.0,37.0,30.06,SSW,205,0.0,1.0,83,0.00,,,0.00,weatherlink.com 1.10,2013-08-12 06:14:00,
2013-08-12 00:29:00,41.8,37.0,30.06,SSW,205,1.0,1.0,83,0.00,,,0.00,weatherlink.com 1.10,2013-08-12 06:29:00,
2013-08-12 00:44:00,41.6,37.0,30.05,SSW,205,0.0,1.0,84,0.00,,,0.00,weatherlink.com 1.10,2013-08-12 06:44:00,
2013-08-12 00:59:00,41.4,37.0,30.05,SSW,205,0.0,1.0,84,0.00,,,0.00,weatherlink.com 1.10,2013-08-12 06:59:00,
2013-08-12 01:14:00,40.7,37.0,30.05,SSW,205,0.0,1.0,86,0.00,,,0.00,weatherlink.com 1.10,2013-08-12 07:14:00,
2013-08-12 01:29:00,40.8,38.0,30.05,SSW,205,0.0,0.0,88,0.00,,,0.00,weatherlink.com 1.10,2013-08-12 07:29:00,
2013-08-12 01:44:00,40.7,37.0,30.06,SSW,205,0.0,0.0,87,0.00,,,0.00,weatherlink.com 1.10,2013-08-12 07:44:00,
2013-08-12 01:59:00,41.1,38.0,30.06,SSW,205,0.0,1.0,87,0.00,,,0.00,weatherlink.com 1.10,2013-08-12 07:59:00,
2013-08-12 02:14:00,41.4,38.0,30.06,SSW,205,0.0,1.0,87,0.00,,,0.00,weatherlink.com 1.10,2013-08-12 08:14:00,
2013-08-12 02:29:00,41.2,38.0,30.06,SSW,205,0.0,0.0,89,0.00,,,0.00,weatherlink.com 1.10,2013-08-12 08:29:00,
2013-08-12 02:44:00,40.6,38.0,30.05,SSW,205,0.0,1.0,90,0.00,,,0.00,weatherlink.com 1.10,2013-08-12 08:44:00,
2013-08-12 02:59:00,40.7,38.0,30.06,SSW,205,0.0,1.0,90,0.00,,,0.00,weatherlink.com 1.10,2013-08-12 08:59:00,
2013-08-12 03:14:00,41.0,38.0,30.05,SSW,205,0.0,1.0,90,0.00,,,0.00,weatherlink.com 1.10,2013-08-12 09:14:00,
2013-08-12 03:29:00,41.3,39.0,30.05,SSW,205,0.0,0.0,90,0.00,,,0.00,weatherlink.com 1.10,2013-08-12 09:29:00,
2013-08-12 03:44:00,41.5,39.0,30.05,SSW,205,0.0,0.0,91,0.00,,,0.00,weatherlink.com 1.10,2013-08-12 09:44:00,
2013-08-12 03:59:00,42.4,39.0,30.05,SSW,205,0.0,1.0,89,0.00,,,0.00,weatherlink.com 1.10,2013-08-12 09:59:00,
2013-08-12 04:14:00,42.9,40.0,30.04,SSW,205,1.0,1.0,89,0.00,,,0.00,weatherlink.com 1.10,2013-08-12 10:14:00,
2013-08-12 04:29:00,43.3,40.0,30.04,SSW,205,0.0,0.0,88,0.00,,,0.00,weatherlink.com 1.10,2013-08-12 10:29:00,
2013-08-12 04:44:00,43.2,40.0,30.03,SSW,205,0.0,1.0,88,0.00,,,0.00,weatherlink.com 1.10,2013-08-12 10:44:00,
2013-08-12 04:59:00,42.7,39.0,30.04,SSW,205,0.0,0.0,88,0.00,,,0.00,weatherlink.com 1.10,2013-08-12 10:59:00,
2013-08-12 05:14:00,41.5,39.0,30.03,SSW,205,1.0,1.0,90,0.00,,,0.00,weatherlink.com 1.10,2013-08-12 11:14:00,
2013-08-12 05:29:00,41.0,38.0,30.03,SSW,205,0.0,1.0,90,0.00,,,0.00,weatherlink.com 1.10,2013-08-12 11:29:00,
2013-08-12 05:45:00,41.1,39.0,30.03,SSW,205,1.0,1.0,91,0.00,,,0.00,weatherlink.com 1.10,2013-08-12 11:45:00,
2013-08-12 05:59:00,41.0,38.0,30.03,SSW,205,1.0,1.0,90,0.00,,,0.00,weatherlink.com 1.10,2013-08-12 11:59:00,
2013-08-12 06:14:00,40.4,38.0,30.04,SSW,205,0.0,0.0,91,0.00,,,0.00,weatherlink.com 1.10,2013-08-12 12:14:00,
2013-08-12 06:30:00,39.6,37.0,30.05,SSW,205,0.0,1.0,91,0.00,,,0.00,weatherlink.com 1.10,2013-08-12 12:30:00,
2013-08-12 06:45:00,39.3,37.0,30.05,SSW,205,0.0,0.0,92,0.00,,,0.00,weatherlink.com 1.10,2013-08-12 12:45:00,
2013-08-12 07:00:00,39.7,37.0,30.05,SSW,205,0.0,2.0,91,0.00,,,0.00,weatherlink.com 1.10,2013-08-12 13:00:00,
2013-08-12 07:15:00,40.0,38.0,30.04,SSW,205,0.0,1.0,91,0.00,,,0.00,weatherlink.com 1.10,2013-08-12 13:15:00,
2013-08-12 07:30:00,43.2,39.0,30.05,SSW,205,1.0,1.0,85,0.00,,,0.00,weatherlink.com 1.10,2013-08-12 13:30:00,
2013-08-12 07:45:00,45.2,40.0,30.05,SSW,203,1.0,2.0,81,0.00,,,0.00,weatherlink.com 1.10,2013-08-12 13:45:00,
2013-08-12 08:00:00,48.3,41.0,30.04,SSW,203,0.0,1.0,77,0.00,,,0.00,weatherlink.com 1.10,2013-08-12 14:00:00,
2013-08-12 08:15:00,50.3,42.0,30.04,SSW,203,0.0,2.0,74,0.00,,,0.00,weatherlink.com 1.10,2013-08-12 14:15:00,
2013-08-12 08:30:00,52.9,43.0,30.03,SSW,203,1.0,1.0,70,0.00,,,0.00,weatherlink.com 1.10,2013-08-12 14:30:00,
2013-08-12 08:45:00,56.3,45.0,30.02,SSW,202,0.0,0.0,65,0.00,,,0.00,weatherlink.com 1.10,2013-08-12 14:45:00,
2013-08-12 09:00:00,60.8,45.0,30.02,SSW,194,0.0,0.0,56,0.00,,,0.00,weatherlink.com 1.10,2013-08-12 15:00:00,
2013-08-12 09:15:00,59.6,43.0,30.00,South,181,0.0,2.0,54,0.00,,,0.00,weatherlink.com 1.10,2013-08-12 15:15:00,
2013-08-12 09:30:00,60.4,40.0,30.00,South,172,1.0,2.0,48,0.00,,,0.00,weatherlink.com 1.10,2013-08-12 15:30:00,
2013-08-12 09:45:00,62.2,38.0,30.00,South,189,0.0,2.0,41,0.00,,,0.00,weatherlink.com 1.10,2013-08-12 15:45:00,
2013-08-12 10:00:00,62.7,40.0,30.00,South,181,1.0,3.0,43,0.00,,,0.00,weatherlink.com 1.10,2013-08-12 16:00:00,
2013-08-12 10:15:00,63.5,38.0,29.99,SSE,156,2.0,8.0,39,0.00,,,0.00,weatherlink.com 1.10,2013-08-12 16:15:00,
2013-08-12 10:30:00,63.7,39.0,29.98,SSE,158,3.0,8.0,41,0.00,,,0.00,weatherlink.com 1.10,2013-08-12 16:30:00,
2013-08-12 10:45:00,63.4,41.0,29.98,SSE,158,3.0,9.0,44,0.00,,,0.00,weatherlink.com 1.10,2013-08-12 16:45:00,
2013-08-12 11:00:00,64.1,40.0,29.98,SE,124,4.0,9.0,41,0.00,,,0.00,weatherlink.com 1.10,2013-08-12 17:00:00,
2013-08-12 11:15:00,64.8,41.0,29.97,SSE,167,2.0,7.0,42,0.00,,,0.00,weatherlink.com 1.10,2013-08-12 17:15:00,
2013-08-12 11:30:00,63.6,38.0,29.97,SSE,160,3.0,9.0,39,0.00,,,0.00,weatherlink.com 1.10,2013-08-12 17:30:00,
2013-08-12 11:46:00,63.9,41.0,29.97,South,187,1.0,5.0,43,0.00,,,0.00,weatherlink.com 1.10,2013-08-12 17:46:00,
2013-08-12 12:01:00,65.1,37.0,29.96,South,176,0.0,11.0,35,0.00,,,0.00,weatherlink.com 1.10,2013-08-12 18:01:00,
2013-08-12 12:16:00,66.3,35.0,29.95,SE,139,7.0,9.0,32,0.00,,,0.00,weatherlink.com 1.10,2013-08-12 18:16:00,
2013-08-12 12:31:00,67.2,36.0,29.94,SE,133,4.0,8.0,32,0.00,,,0.00,weatherlink.com 1.10,2013-08-12 18:31:00,
2013-08-12 13:01:00,66.5,33.0,29.94,SSE,155,5.0,15.0,29,0.00,,,0.00,weatherlink.com 1.10,2013-08-12 19:01:00,
2013-08-12 13:16:00,67.1,33.0,29.94,ESE,117,9.0,11.0,28,0.00,,,0.00,weatherlink.com 1.10,2013-08-12 19:16:00,
2013-08-12 13:31:00,66.2,37.0,29.93,SE,124,10.0,11.0,34,0.00,,,0.00,weatherlink.com 1.10,2013-08-12 19:31:00,
2013-08-12 13:46:00,65.6,37.0,29.93,SE,137,4.0,14.0,35,0.00,,,0.00,weatherlink.com 1.10,2013-08-12 19:46:00,
2013-08-12 14:01:00,65.9,37.0,29.92,SE,128,8.0,14.0,34,0.00,,,0.00,weatherlink.com 1.10,2013-08-12 20:01:00,
2013-08-12 14:16:00,66.0,39.0,29.92,SE,142,8.0,16.0,37,0.00,,,0.00,weatherlink.com 1.10,2013-08-12 20:16:00,
2013-08-12 14:31:00,63.9,39.0,29.93,ESE,120,13.0,13.0,40,0.00,,,0.00,weatherlink.com 1.10,2013-08-12 20:31:00,
2013-08-12 14:46:00,63.8,39.0,29.93,SE,141,5.0,8.0,41,0.00,,,0.00,weatherlink.com 1.10,2013-08-12 20:46:00,
2013-08-12 15:01:00,64.3,40.0,29.93,South,177,1.0,10.0,41,0.00,,,0.00,weatherlink.com 1.10,2013-08-12 21:01:00,
2013-08-12 15:16:00,65.1,40.0,29.92,SSE,150,6.0,11.0,40,0.00,,,0.00,weatherlink.com 1.10,2013-08-12 21:16:00,
2013-08-12 15:31:00,64.8,37.0,29.92,ESE,110,7.0,15.0,36,0.00,,,0.00,weatherlink.com 1.10,2013-08-12 21:31:00,
2013-08-12 15:46:00,64.8,39.0,29.91,SE,124,7.0,12.0,39,0.00,,,0.00,weatherlink.com 1.10,2013-08-12 21:46:00,
2013-08-12 16:01:00,64.8,39.0,29.91,SSE,159,4.0,14.0,39,0.00,,,0.00,weatherlink.com 1.10,2013-08-12 22:01:00,
2013-08-12 16:16:00,65.2,37.0,29.91,ESE,118,6.0,11.0,36,0.00,,,0.00,weatherlink.com 1.10,2013-08-12 22:16:00,
2013-08-12 16:31:00,64.2,39.0,29.91,SE,143,5.0,15.0,39,0.00,,,0.00,weatherlink.com 1.10,2013-08-12 22:31:00,
2013-08-12 16:46:00,63.9,40.0,29.91,SSE,148,6.0,10.0,42,0.00,,,0.00,weatherlink.com 1.10,2013-08-12 22:46:00,
2013-08-12 17:01:00,62.9,39.0,29.91,SSE,150,6.0,10.0,42,0.00,,,0.00,weatherlink.com 1.10,2013-08-12 23:01:00,
2013-08-12 17:16:00,62.0,40.0,29.92,South,182,0.0,8.0,45,0.00,,,0.00,weatherlink.com 1.10,2013-08-12 23:16:00,
2013-08-12 17:31:00,57.8,48.0,29.92,SSW,208,0.0,2.0,71,0.02,,,0.02,weatherlink.com 1.10,2013-08-12 23:31:00,
2013-08-12 17:46:00,55.5,48.0,29.94,South,186,0.0,1.0,77,0.02,,,0.02,weatherlink.com 1.10,2013-08-12 23:46:00,
2013-08-12 18:01:00,53.3,43.0,29.95,SSW,193,0.0,5.0,69,0.02,,,0.02,weatherlink.com 1.10,2013-08-13 00:01:00,
2013-08-12 18:16:00,51.5,46.0,29.97,SSW,212,0.0,3.0,80,0.02,,,0.02,weatherlink.com 1.10,2013-08-13 00:16:00,
2013-08-12 18:31:00,51.5,47.0,29.97,SSW,208,0.0,5.0,85,0.01,,,0.03,weatherlink.com 1.10,2013-08-13 00:31:00,
2013-08-12 18:46:00,52.6,47.0,29.95,SSW,210,1.0,6.0,82,0.01,,,0.03,weatherlink.com 1.10,2013-08-13 00:46:00,
2013-08-12 19:01:00,51.2,45.0,29.95,SSW,212,1.0,8.0,80,0.01,,,0.03,weatherlink.com 1.10,2013-08-13 01:01:00,
2013-08-12 19:16:00,50.3,46.0,29.95,SSW,199,2.0,2.0,84,0.01,,,0.03,weatherlink.com 1.10,2013-08-13 01:16:00,
2013-08-12 19:31:00,49.2,46.0,29.96,SSW,210,0.0,1.0,87,0.00,,,0.03,weatherlink.com 1.10,2013-08-13 01:31:00,
2013-08-12 19:46:00,48.1,45.0,29.97,SSW,210,1.0,2.0,89,0.00,,,0.03,weatherlink.com 1.10,2013-08-13 01:46:00,
2013-08-12 20:01:00,48.1,45.0,29.98,SSW,212,0.0,3.0,89,0.00,,,0.03,weatherlink.com 1.10,2013-08-13 02:01:00,
2013-08-12 20:16:00,48.4,46.0,30.00,SSW,212,0.0,2.0,90,0.00,,,0.03,weatherlink.com 1.10,2013-08-13 02:16:00,
2013-08-12 20:31:00,48.3,46.0,30.00,SSW,210,0.0,3.0,90,0.00,,,0.03,weatherlink.com 1.10,2013-08-13 02:31:00,
2013-08-12 20:46:00,48.2,46.0,30.01,SW,221,3.0,5.0,90,0.00,,,0.03,weatherlink.com 1.10,2013-08-13 02:46:00,
2013-08-12 21:01:00,47.9,45.0,30.01,SSW,202,0.0,3.0,88,0.00,,,0.03,weatherlink.com 1.10,2013-08-13 03:01:00,
2013-08-12 21:16:00,47.1,44.0,30.02,SSW,200,0.0,0.0,89,0.00,,,0.03,weatherlink.com 1.10,2013-08-13 03:16:00,
2013-08-12 21:31:00,46.1,44.0,30.03,SSW,200,0.0,0.0,91,0.00,,,0.03,weatherlink.com 1.10,2013-08-13 03:31:00,
2013-08-12 21:46:00,45.7,44.0,30.04,SSW,201,0.0,1.0,92,0.00,,,0.03,weatherlink.com 1.10,2013-08-13 03:46:00,
2013-08-12 22:01:00,45.0,43.0,30.03,SSW,201,0.0,0.0,91,0.00,,,0.03,weatherlink.com 1.10,2013-08-13 04:01:00,
2013-08-12 22:16:00,44.1,42.0,30.04,SSW,201,0.0,1.0,92,0.00,,,0.03,weatherlink.com 1.10,2013-08-13 04:16:00,
2013-08-12 22:31:00,43.3,41.0,30.04,SSW,201,0.0,0.0,92,0.00,,,0.03,weatherlink.com 1.10,2013-08-13 04:31:00,
2013-08-12 22:46:00,42.7,41.0,30.05,SSW,201,0.0,0.0,92,0.00,,,0.03,weatherlink.com 1.10,2013-08-13 04:46:00,
2013-08-12 23:01:00,42.2,40.0,30.05,SSW,201,0.0,1.0,93,0.00,,,0.03,weatherlink.com 1.10,2013-08-13 05:01:00,
2013-08-12 23:16:00,42.2,40.0,30.05,SSW,201,0.0,1.0,93,0.00,,,0.03,weatherlink.com 1.10,2013-08-13 05:16:00,
2013-08-12 23:31:00,41.7,40.0,30.06,SSW,201,1.0,1.0,93,0.00,,,0.03,weatherlink.com 1.10,2013-08-13 05:31:00,
2013-08-12 23:46:00,41.4,40.0,30.06,SSW,201,0.0,1.0,93,0.00,,,0.03,weatherlink.com 1.10,2013-08-13 05:46:00,